首页
METAR-TAF:

METAR-TAF

机场 :

德梅因, 艾奥瓦州, 美国

纬度: 41-32-16N, 经度: 093-39-58W, 海拔: 291米

当前天气观测

该预报发布于1小时和3分钟前的09:54 UTC
静风
温度 17°C
湿度 100%
气压 1011 hPa
能見度: 16.1公里
少量云层高于6000英尺
少量云层高于25000英尺

METAR: KDSM 260954Z 00000KT 10SM FEW060 FEW250 17/17 A2984 RMK AO2 SLP099 T01720167 $

时间: 05:57 (10:57 UTC)

预报

该预报发布于1小时和31分钟前的09:26 UTC
预报有效从26日的 09点(UTC)到 27日的 06点(UTC)
风速8节,风向南转南东
能見度: 10公里
少量云层高于800英尺
多云层高于5000英尺
从 26日的 1200点(UTC)
风速9节,风向东南
能見度: 9.7公里
多云层高于1500英尺, 积雨云.
小阵雨, 附近有雷暴
从 26日的 1500点(UTC)
风速10节,风向东南,有时为16节阵风
能見度: 10公里
阴天层高于2500英尺
从 26日的 1900点(UTC)
风速10节,风向南转南东,有时为19节阵风
能見度: 10公里
多云层高于3500英尺, 积雨云.
附近有雷暴
从 26日的 2300点(UTC)
风速7节,风向
能見度: 10公里
多云层高于4000英尺

TAF: KDSM 260926Z 2609/2706 15008KT P6SM FEW008 BKN050 FM261200 14009KT 6SM -SHRA VCTS BKN015CB FM261500 14010G16KT P6SM OVC025 FM261900 15010G19KT P6SM VCTS BKN035CB FM262300 17007KT P6SM BKN040

超过4000个机场的气象观测和天气预报(METAR&TAF报告)。

可查询的气象台以黄色和红色小点在地图上表示。

将鼠标移到小点上方,可查看气象台名称。

然后点击查看天气观测和预报。

如需切换地图:点击带黑十字的绿色按钮放大地图;点击带横线的绿色按钮缩小地图;或者点击绿色箭头查看邻近地区的地图。


METAR-TAF: